sensor_id;sensor_type;location;lat;lon;timestamp;temperature;humidity
19878;DHT22;10101;52.204;9.910;2023-05-10T00:00:27;12.50;99.90
19878;DHT22;10101;52.204;9.910;2023-05-10T00:02:54;12.50;99.90
19878;DHT22;10101;52.204;9.910;2023-05-10T00:05:21;12.50;99.90
19878;DHT22;10101;52.204;9.910;2023-05-10T00:07:47;12.50;99.90
19878;DHT22;10101;52.204;9.910;2023-05-10T00:10:14;12.50;99.90
19878;DHT22;10101;52.204;9.910;2023-05-10T00:12:42;12.50;99.90
19878;DHT22;10101;52.204;9.910;2023-05-10T00:15:10;12.50;99.90
19878;DHT22;10101;52.204;9.910;2023-05-10T00:17:36;12.40;99.90
19878;DHT22;10101;52.204;9.910;2023-05-10T00:20:04;12.40;99.90
19878;DHT22;10101;52.204;9.910;2023-05-10T00:22:31;12.40;99.90
19878;DHT22;10101;52.204;9.910;2023-05-10T00:24:58;12.40;99.90
19878;DHT22;10101;52.204;9.910;2023-05-10T00:27:24;12.40;99.90
19878;DHT22;10101;52.204;9.910;2023-05-10T00:29:53;12.30;99.90
19878;DHT22;10101;52.204;9.910;2023-05-10T00:32:19;12.30;99.90
19878;DHT22;10101;52.204;9.910;2023-05-10T00:34:46;12.20;99.90
19878;DHT22;10101;52.204;9.910;2023-05-10T00:37:13;12.20;99.90
19878;DHT22;10101;52.204;9.910;2023-05-10T00:39:40;12.20;49.00
19878;DHT22;10101;52.204;9.910;2023-05-10T00:42:06;12.10;1.00
19878;DHT22;10101;52.204;9.910;2023-05-10T00:44:33;12.00;1.00
19878;DHT22;10101;52.204;9.910;2023-05-10T00:47:01;11.90;1.00
19878;DHT22;10101;52.204;9.910;2023-05-10T00:49:28;11.90;1.00
19878;DHT22;10101;52.204;9.910;2023-05-10T00:51:56;11.80;1.00
19878;DHT22;10101;52.204;9.910;2023-05-10T00:54:23;11.70;1.00
19878;DHT22;10101;52.204;9.910;2023-05-10T00:56:51;11.70;29.00
19878;DHT22;10101;52.204;9.910;2023-05-10T00:59:18;11.50;1.00
19878;DHT22;10101;52.204;9.910;2023-05-10T01:01:45;11.50;1.00
19878;DHT22;10101;52.204;9.910;2023-05-10T01:04:14;11.60;1.00
19878;DHT22;10101;52.204;9.910;2023-05-10T01:06:42;11.50;1.00
19878;DHT22;10101;52.204;9.910;2023-05-10T01:09:09;11.40;1.00
19878;DHT22;10101;52.204;9.910;2023-05-10T01:11:38;11.30;1.00
19878;DHT22;10101;52.204;9.910;2023-05-10T01:14:05;11.30;1.00
19878;DHT22;10101;52.204;9.910;2023-05-10T01:16:35;11.30;99.90
19878;DHT22;10101;52.204;9.910;2023-05-10T01:19:04;11.30;99.90
19878;DHT22;10101;52.204;9.910;2023-05-10T01:21:42;11.30;99.90
19878;DHT22;10101;52.204;9.910;2023-05-10T01:24:31;11.20;99.90
19878;DHT22;10101;52.204;9.910;2023-05-10T01:27:35;11.20;1.00
19878;DHT22;10101;52.204;9.910;2023-05-10T01:30:31;11.10;1.00
19878;DHT22;10101;52.204;9.910;2023-05-10T01:33:01;11.10;1.00
19878;DHT22;10101;52.204;9.910;2023-05-10T01:35:38;11.10;1.00
19878;DHT22;10101;52.204;9.910;2023-05-10T01:38:11;11.00;1.00
19878;DHT22;10101;52.204;9.910;2023-05-10T01:40:47;11.00;1.00
19878;DHT22;10101;52.204;9.910;2023-05-10T01:43:19;11.00;75.90
19878;DHT22;10101;52.204;9.910;2023-05-10T01:45:54;11.10;55.50
19878;DHT22;10101;52.204;9.910;2023-05-10T01:48:25;11.00;46.90
19878;DHT22;10101;52.204;9.910;2023-05-10T01:50:54;11.00;7.40
19878;DHT22;10101;52.204;9.910;2023-05-10T01:53:22;10.90;99.90
19878;DHT22;10101;52.204;9.910;2023-05-10T01:55:52;11.00;99.90
19878;DHT22;10101;52.204;9.910;2023-05-10T01:58:23;11.20;99.90
19878;DHT22;10101;52.204;9.910;2023-05-10T02:00:52;11.10;99.90
19878;DHT22;10101;52.204;9.910;2023-05-10T02:03:23;11.10;99.90
19878;DHT22;10101;52.204;9.910;2023-05-10T02:05:52;11.10;1.00
19878;DHT22;10101;52.204;9.910;2023-05-10T02:08:21;11.10;1.00
19878;DHT22;10101;52.204;9.910;2023-05-10T02:10:50;11.00;99.90
19878;DHT22;10101;52.204;9.910;2023-05-10T02:13:18;11.00;99.90
19878;DHT22;10101;52.204;9.910;2023-05-10T02:15:47;10.90;99.90
19878;DHT22;10101;52.204;9.910;2023-05-10T02:18:14;10.90;99.90
19878;DHT22;10101;52.204;9.910;2023-05-10T02:20:45;11.00;1.00
19878;DHT22;10101;52.204;9.910;2023-05-10T02:23:13;11.00;1.00
19878;DHT22;10101;52.204;9.910;2023-05-10T02:25:41;11.10;1.00
19878;DHT22;10101;52.204;9.910;2023-05-10T02:28:11;11.10;1.00
19878;DHT22;10101;52.204;9.910;2023-05-10T02:30:39;11.10;1.00
19878;DHT22;10101;52.204;9.910;2023-05-10T02:33:06;11.20;1.00
19878;DHT22;10101;52.204;9.910;2023-05-10T02:35:34;11.20;1.00
19878;DHT22;10101;52.204;9.910;2023-05-10T02:38:02;11.20;99.90
19878;DHT22;10101;52.204;9.910;2023-05-10T02:40:30;11.10;99.90
19878;DHT22;10101;52.204;9.910;2023-05-10T02:42:59;11.10;1.00
19878;DHT22;10101;52.204;9.910;2023-05-10T02:45:30;11.10;1.00
19878;DHT22;10101;52.204;9.910;2023-05-10T02:47:58;11.20;1.00
19878;DHT22;10101;52.204;9.910;2023-05-10T02:50:27;11.20;1.00
19878;DHT22;10101;52.204;9.910;2023-05-10T02:52:59;11.20;1.00
19878;DHT22;10101;52.204;9.910;2023-05-10T02:55:32;11.20;1.00
19878;DHT22;10101;52.204;9.910;2023-05-10T02:58:00;11.30;1.00
19878;DHT22;10101;52.204;9.910;2023-05-10T03:00:27;11.30;1.00
19878;DHT22;10101;52.204;9.910;2023-05-10T03:02:54;11.30;1.00
19878;DHT22;10101;52.204;9.910;2023-05-10T03:05:21;11.30;1.00
19878;DHT22;10101;52.204;9.910;2023-05-10T03:07:48;11.30;1.00
19878;DHT22;10101;52.204;9.910;2023-05-10T03:10:17;11.30;1.00
19878;DHT22;10101;52.204;9.910;2023-05-10T03:12:56;11.30;1.00
19878;DHT22;10101;52.204;9.910;2023-05-10T03:15:32;11.30;1.00
19878;DHT22;10101;52.204;9.910;2023-05-10T03:18:07;11.30;1.00
19878;DHT22;10101;52.204;9.910;2023-05-10T03:20:38;11.30;1.00
19878;DHT22;10101;52.204;9.910;2023-05-10T03:23:11;11.30;1.00
19878;DHT22;10101;52.204;9.910;2023-05-10T03:25:39;11.30;1.00
19878;DHT22;10101;52.204;9.910;2023-05-10T03:28:08;11.30;1.00
19878;DHT22;10101;52.204;9.910;2023-05-10T03:30:35;11.30;1.00
19878;DHT22;10101;52.204;9.910;2023-05-10T03:33:04;11.30;1.00
19878;DHT22;10101;52.204;9.910;2023-05-10T03:35:32;11.30;1.00
19878;DHT22;10101;52.204;9.910;2023-05-10T03:37:58;11.30;1.00
19878;DHT22;10101;52.204;9.910;2023-05-10T03:40:26;11.30;1.00
19878;DHT22;10101;52.204;9.910;2023-05-10T03:42:54;11.30;1.00
19878;DHT22;10101;52.204;9.910;2023-05-10T03:45:22;11.30;1.00
19878;DHT22;10101;52.204;9.910;2023-05-10T03:47:49;11.20;1.00
19878;DHT22;10101;52.204;9.910;2023-05-10T03:50:16;11.20;1.00
19878;DHT22;10101;52.204;9.910;2023-05-10T03:52:43;11.30;1.00
19878;DHT22;10101;52.204;9.910;2023-05-10T03:55:10;11.30;1.00
19878;DHT22;10101;52.204;9.910;2023-05-10T03:57:37;11.30;1.00
19878;DHT22;10101;52.204;9.910;2023-05-10T04:00:04;11.30;90.80
19878;DHT22;10101;52.204;9.910;2023-05-10T04:02:33;11.30;99.90
19878;DHT22;10101;52.204;9.910;2023-05-10T04:05:00;11.30;99.90
19878;DHT22;10101;52.204;9.910;2023-05-10T04:07:26;11.30;99.90
19878;DHT22;10101;52.204;9.910;2023-05-10T04:09:53;11.30;1.00
19878;DHT22;10101;52.204;9.910;2023-05-10T04:12:20;11.30;1.00
19878;DHT22;10101;52.204;9.910;2023-05-10T04:14:46;11.30;1.00
19878;DHT22;10101;52.204;9.910;2023-05-10T04:17:13;11.20;99.90
19878;DHT22;10101;52.204;9.910;2023-05-10T04:19:42;11.20;1.00
19878;DHT22;10101;52.204;9.910;2023-05-10T04:22:19;11.30;99.90
19878;DHT22;10101;52.204;9.910;2023-05-10T04:24:49;11.30;99.90
19878;DHT22;10101;52.204;9.910;2023-05-10T04:27:18;11.30;99.90
19878;DHT22;10101;52.204;9.910;2023-05-10T04:29:48;11.30;63.10
19878;DHT22;10101;52.204;9.910;2023-05-10T04:32:16;11.30;99.90
19878;DHT22;10101;52.204;9.910;2023-05-10T04:35:06;11.30;99.90
19878;DHT22;10101;52.204;9.910;2023-05-10T04:37:40;11.10;99.90
19878;DHT22;10101;52.204;9.910;2023-05-10T04:40:24;11.10;99.90
19878;DHT22;10101;52.204;9.910;2023-05-10T04:42:58;11.00;99.90
19878;DHT22;10101;52.204;9.910;2023-05-10T04:45:29;11.00;99.90
19878;DHT22;10101;52.204;9.910;2023-05-10T04:47:59;11.20;99.90
19878;DHT22;10101;52.204;9.910;2023-05-10T04:50:28;11.20;99.90
19878;DHT22;10101;52.204;9.910;2023-05-10T04:52:57;11.20;99.90
19878;DHT22;10101;52.204;9.910;2023-05-10T04:55:24;11.30;99.90
19878;DHT22;10101;52.204;9.910;2023-05-10T04:57:52;11.40;99.90
19878;DHT22;10101;52.204;9.910;2023-05-10T05:00:21;11.50;99.90
19878;DHT22;10101;52.204;9.910;2023-05-10T05:02:53;11.40;99.90
19878;DHT22;10101;52.204;9.910;2023-05-10T05:05:20;11.40;99.90
19878;DHT22;10101;52.204;9.910;2023-05-10T05:07:49;11.50;99.90
19878;DHT22;10101;52.204;9.910;2023-05-10T05:10:16;11.50;99.90
19878;DHT22;10101;52.204;9.910;2023-05-10T05:12:45;11.50;99.90
19878;DHT22;10101;52.204;9.910;2023-05-10T05:15:14;11.50;99.90
19878;DHT22;10101;52.204;9.910;2023-05-10T05:17:42;11.60;99.90
19878;DHT22;10101;52.204;9.910;2023-05-10T05:20:10;11.50;99.90
19878;DHT22;10101;52.204;9.910;2023-05-10T05:22:43;11.40;99.90
19878;DHT22;10101;52.204;9.910;2023-05-10T05:25:14;11.40;99.90
19878;DHT22;10101;52.204;9.910;2023-05-10T05:27:59;11.40;99.90
19878;DHT22;10101;52.204;9.910;2023-05-10T05:30:37;11.30;99.90
19878;DHT22;10101;52.204;9.910;2023-05-10T05:33:10;11.40;99.90
19878;DHT22;10101;52.204;9.910;2023-05-10T05:35:41;11.40;99.90
19878;DHT22;10101;52.204;9.910;2023-05-10T05:38:19;11.50;99.90
19878;DHT22;10101;52.204;9.910;2023-05-10T05:41:01;11.50;99.90
19878;DHT22;10101;52.204;9.910;2023-05-10T05:43:39;11.60;99.90
19878;DHT22;10101;52.204;9.910;2023-05-10T05:46:08;11.60;99.90
19878;DHT22;10101;52.204;9.910;2023-05-10T05:48:39;11.60;99.90
19878;DHT22;10101;52.204;9.910;2023-05-10T05:51:15;11.70;99.90
19878;DHT22;10101;52.204;9.910;2023-05-10T05:53:56;11.60;99.90
19878;DHT22;10101;52.204;9.910;2023-05-10T05:56:49;11.70;99.90
19878;DHT22;10101;52.204;9.910;2023-05-10T05:59:24;11.70;99.90
19878;DHT22;10101;52.204;9.910;2023-05-10T06:02:05;11.80;99.90
19878;DHT22;10101;52.204;9.910;2023-05-10T06:04:32;11.70;99.90
19878;DHT22;10101;52.204;9.910;2023-05-10T06:07:01;11.70;99.90
19878;DHT22;10101;52.204;9.910;2023-05-10T06:09:29;11.70;99.90
19878;DHT22;10101;52.204;9.910;2023-05-10T06:12:00;11.70;99.90
19878;DHT22;10101;52.204;9.910;2023-05-10T06:14:31;11.70;99.90
19878;DHT22;10101;52.204;9.910;2023-05-10T06:16:58;11.70;99.90
19878;DHT22;10101;52.204;9.910;2023-05-10T06:19:29;11.80;99.90
19878;DHT22;10101;52.204;9.910;2023-05-10T06:22:05;11.80;99.90
19878;DHT22;10101;52.204;9.910;2023-05-10T06:24:32;11.80;99.90
19878;DHT22;10101;52.204;9.910;2023-05-10T06:27:01;11.80;99.90
19878;DHT22;10101;52.204;9.910;2023-05-10T06:29:31;11.80;99.90
19878;DHT22;10101;52.204;9.910;2023-05-10T06:31:58;11.90;99.90
19878;DHT22;10101;52.204;9.910;2023-05-10T06:34:25;11.90;99.90
19878;DHT22;10101;52.204;9.910;2023-05-10T06:36:52;11.90;99.90
19878;DHT22;10101;52.204;9.910;2023-05-10T06:39:31;12.00;99.90
19878;DHT22;10101;52.204;9.910;2023-05-10T06:42:16;12.00;99.90
19878;DHT22;10101;52.204;9.910;2023-05-10T06:44:45;12.00;99.90
19878;DHT22;10101;52.204;9.910;2023-05-10T06:47:14;12.10;99.90
19878;DHT22;10101;52.204;9.910;2023-05-10T06:49:45;12.10;99.90
19878;DHT22;10101;52.204;9.910;2023-05-10T06:52:21;12.10;99.90
19878;DHT22;10101;52.204;9.910;2023-05-10T06:54:52;12.20;99.90
19878;DHT22;10101;52.204;9.910;2023-05-10T06:57:23;12.20;99.90
19878;DHT22;10101;52.204;9.910;2023-05-10T06:59:51;12.30;99.90
19878;DHT22;10101;52.204;9.910;2023-05-10T07:02:19;12.30;99.90
19878;DHT22;10101;52.204;9.910;2023-05-10T07:04:50;12.30;99.90
19878;DHT22;10101;52.204;9.910;2023-05-10T07:07:26;12.50;99.90
19878;DHT22;10101;52.204;9.910;2023-05-10T07:09:59;12.50;99.90
19878;DHT22;10101;52.204;9.910;2023-05-10T07:12:30;12.60;99.90
19878;DHT22;10101;52.204;9.910;2023-05-10T07:14:57;12.60;99.90
19878;DHT22;10101;52.204;9.910;2023-05-10T07:17:27;12.70;99.90
19878;DHT22;10101;52.204;9.910;2023-05-10T07:19:59;12.80;99.90
19878;DHT22;10101;52.204;9.910;2023-05-10T07:22:27;12.80;99.90
19878;DHT22;10101;52.204;9.910;2023-05-10T07:24:59;12.90;99.90
19878;DHT22;10101;52.204;9.910;2023-05-10T07:27:28;13.00;99.90
19878;DHT22;10101;52.204;9.910;2023-05-10T07:29:57;13.10;99.90
19878;DHT22;10101;52.204;9.910;2023-05-10T07:32:24;13.10;99.90
19878;DHT22;10101;52.204;9.910;2023-05-10T07:34:54;13.20;99.90
19878;DHT22;10101;52.204;9.910;2023-05-10T07:37:22;13.10;99.90
19878;DHT22;10101;52.204;9.910;2023-05-10T07:39:56;13.10;99.90
19878;DHT22;10101;52.204;9.910;2023-05-10T07:42:27;13.10;99.90
19878;DHT22;10101;52.204;9.910;2023-05-10T07:45:00;13.10;99.90
19878;DHT22;10101;52.204;9.910;2023-05-10T07:47:32;13.00;99.90
19878;DHT22;10101;52.204;9.910;2023-05-10T07:49:59;13.00;99.90
19878;DHT22;10101;52.204;9.910;2023-05-10T07:52:27;13.00;99.90
19878;DHT22;10101;52.204;9.910;2023-05-10T07:54:54;13.10;99.90
19878;DHT22;10101;52.204;9.910;2023-05-10T07:57:22;13.10;99.90
19878;DHT22;10101;52.204;9.910;2023-05-10T07:59:49;13.10;99.90
19878;DHT22;10101;52.204;9.910;2023-05-10T08:02:24;13.10;99.90
19878;DHT22;10101;52.204;9.910;2023-05-10T08:04:52;13.10;99.90
19878;DHT22;10101;52.204;9.910;2023-05-10T08:07:24;13.20;99.90
19878;DHT22;10101;52.204;9.910;2023-05-10T08:09:52;13.20;99.90
19878;DHT22;10101;52.204;9.910;2023-05-10T08:12:19;13.30;99.90
19878;DHT22;10101;52.204;9.910;2023-05-10T08:14:47;13.30;99.90
19878;DHT22;10101;52.204;9.910;2023-05-10T08:17:17;13.40;99.90
19878;DHT22;10101;52.204;9.910;2023-05-10T08:19:45;13.40;99.90
19878;DHT22;10101;52.204;9.910;2023-05-10T08:22:14;13.40;99.90
19878;DHT22;10101;52.204;9.910;2023-05-10T08:24:43;13.40;99.90
19878;DHT22;10101;52.204;9.910;2023-05-10T08:27:11;13.40;99.90
19878;DHT22;10101;52.204;9.910;2023-05-10T08:29:38;13.40;99.90
19878;DHT22;10101;52.204;9.910;2023-05-10T08:32:09;13.30;99.90
19878;DHT22;10101;52.204;9.910;2023-05-10T08:34:39;13.30;99.90
19878;DHT22;10101;52.204;9.910;2023-05-10T08:37:07;13.30;99.90
19878;DHT22;10101;52.204;9.910;2023-05-10T08:39:36;13.30;99.90
19878;DHT22;10101;52.204;9.910;2023-05-10T08:42:05;13.30;99.90
19878;DHT22;10101;52.204;9.910;2023-05-10T08:44:36;13.30;99.90
19878;DHT22;10101;52.204;9.910;2023-05-10T08:47:07;13.30;99.90
19878;DHT22;10101;52.204;9.910;2023-05-10T08:49:38;13.30;99.90
19878;DHT22;10101;52.204;9.910;2023-05-10T08:52:07;13.40;99.90
19878;DHT22;10101;52.204;9.910;2023-05-10T08:54:34;13.50;99.90
19878;DHT22;10101;52.204;9.910;2023-05-10T08:57:02;13.50;99.90
19878;DHT22;10101;52.204;9.910;2023-05-10T08:59:32;13.50;99.90
19878;DHT22;10101;52.204;9.910;2023-05-10T09:01:59;13.50;99.90
19878;DHT22;10101;52.204;9.910;2023-05-10T09:04:31;13.70;99.90
19878;DHT22;10101;52.204;9.910;2023-05-10T09:06:58;13.80;99.90
19878;DHT22;10101;52.204;9.910;2023-05-10T09:09:27;13.80;99.90
19878;DHT22;10101;52.204;9.910;2023-05-10T09:11:55;13.90;99.90
19878;DHT22;10101;52.204;9.910;2023-05-10T09:14:26;13.80;99.90
19878;DHT22;10101;52.204;9.910;2023-05-10T09:16:54;13.90;99.90
19878;DHT22;10101;52.204;9.910;2023-05-10T09:19:21;13.90;99.90
19878;DHT22;10101;52.204;9.910;2023-05-10T09:21:49;13.90;99.90
19878;DHT22;10101;52.204;9.910;2023-05-10T09:24:16;13.90;99.90
19878;DHT22;10101;52.204;9.910;2023-05-10T09:26:49;13.80;99.90
19878;DHT22;10101;52.204;9.910;2023-05-10T09:29:17;13.80;99.90
19878;DHT22;10101;52.204;9.910;2023-05-10T09:31:46;13.70;99.90
19878;DHT22;10101;52.204;9.910;2023-05-10T09:34:17;13.60;99.90
19878;DHT22;10101;52.204;9.910;2023-05-10T09:36:55;13.50;99.90
19878;DHT22;10101;52.204;9.910;2023-05-10T09:39:32;13.60;99.90
19878;DHT22;10101;52.204;9.910;2023-05-10T09:42:03;13.70;99.90
19878;DHT22;10101;52.204;9.910;2023-05-10T09:44:36;13.60;99.90
19878;DHT22;10101;52.204;9.910;2023-05-10T09:47:04;13.60;99.90
19878;DHT22;10101;52.204;9.910;2023-05-10T09:49:32;13.70;99.90
19878;DHT22;10101;52.204;9.910;2023-05-10T09:52:01;13.80;99.90
19878;DHT22;10101;52.204;9.910;2023-05-10T09:54:29;14.00;99.90
19878;DHT22;10101;52.204;9.910;2023-05-10T09:56:56;14.00;99.90
19878;DHT22;10101;52.204;9.910;2023-05-10T09:59:27;14.00;99.90
19878;DHT22;10101;52.204;9.910;2023-05-10T10:01:56;14.10;99.90
19878;DHT22;10101;52.204;9.910;2023-05-10T10:04:24;14.20;99.90
19878;DHT22;10101;52.204;9.910;2023-05-10T10:07:01;14.30;99.90
19878;DHT22;10101;52.204;9.910;2023-05-10T10:09:41;14.40;99.90
19878;DHT22;10101;52.204;9.910;2023-05-10T10:12:11;14.40;99.90
19878;DHT22;10101;52.204;9.910;2023-05-10T10:14:43;14.60;99.90
19878;DHT22;10101;52.204;9.910;2023-05-10T10:17:36;14.60;99.90
19878;DHT22;10101;52.204;9.910;2023-05-10T10:20:55;14.70;99.90
19878;DHT22;10101;52.204;9.910;2023-05-10T10:23:16;14.80;99.90
19878;DHT22;10101;52.204;9.910;2023-05-10T10:25:44;14.90;99.90
19878;DHT22;10101;52.204;9.910;2023-05-10T10:28:22;14.80;99.90
19878;DHT22;10101;52.204;9.910;2023-05-10T10:30:53;14.90;99.90
19878;DHT22;10101;52.204;9.910;2023-05-10T10:33:39;15.10;99.90
19878;DHT22;10101;52.204;9.910;2023-05-10T10:36:07;15.20;99.90
19878;DHT22;10101;52.204;9.910;2023-05-10T10:41:32;15.00;99.90
19878;DHT22;10101;52.204;9.910;2023-05-10T10:44:22;15.20;99.90
19878;DHT22;10101;52.204;9.910;2023-05-10T10:47:03;15.10;99.90
19878;DHT22;10101;52.204;9.910;2023-05-10T10:49:38;15.20;99.90
19878;DHT22;10101;52.204;9.910;2023-05-10T10:52:20;15.30;99.90
19878;DHT22;10101;52.204;9.910;2023-05-10T10:54:53;15.30;99.90
19878;DHT22;10101;52.204;9.910;2023-05-10T10:57:24;15.30;99.90
19878;DHT22;10101;52.204;9.910;2023-05-10T10:59:54;15.30;99.90
19878;DHT22;10101;52.204;9.910;2023-05-10T11:02:50;15.40;99.90
19878;DHT22;10101;52.204;9.910;2023-05-10T11:05:44;15.50;99.90
19878;DHT22;10101;52.204;9.910;2023-05-10T11:08:17;15.30;99.90
19878;DHT22;10101;52.204;9.910;2023-05-10T11:10:53;15.40;99.90
19878;DHT22;10101;52.204;9.910;2023-05-10T11:13:30;15.50;99.90
19878;DHT22;10101;52.204;9.910;2023-05-10T11:15:58;15.50;99.90
19878;DHT22;10101;52.204;9.910;2023-05-10T11:18:28;15.70;99.90
19878;DHT22;10101;52.204;9.910;2023-05-10T11:20:58;15.80;99.90
19878;DHT22;10101;52.204;9.910;2023-05-10T11:23:30;16.00;99.90
19878;DHT22;10101;52.204;9.910;2023-05-10T11:25:58;16.30;99.90
19878;DHT22;10101;52.204;9.910;2023-05-10T11:28:26;16.20;99.90
19878;DHT22;10101;52.204;9.910;2023-05-10T11:30:54;16.30;99.90
19878;DHT22;10101;52.204;9.910;2023-05-10T11:33:21;16.40;99.90
19878;DHT22;10101;52.204;9.910;2023-05-10T11:35:49;16.50;99.90
19878;DHT22;10101;52.204;9.910;2023-05-10T11:38:16;16.70;99.90
19878;DHT22;10101;52.204;9.910;2023-05-10T11:40:43;17.00;99.90
19878;DHT22;10101;52.204;9.910;2023-05-10T11:43:10;17.80;99.90
19878;DHT22;10101;52.204;9.910;2023-05-10T11:45:37;17.40;99.90
19878;DHT22;10101;52.204;9.910;2023-05-10T11:48:04;17.30;99.90
19878;DHT22;10101;52.204;9.910;2023-05-10T11:50:31;17.50;99.90
19878;DHT22;10101;52.204;9.910;2023-05-10T11:52:59;17.70;99.90
19878;DHT22;10101;52.204;9.910;2023-05-10T11:55:26;17.60;99.90
19878;DHT22;10101;52.204;9.910;2023-05-10T11:57:59;17.60;99.90
19878;DHT22;10101;52.204;9.910;2023-05-10T12:00:26;17.50;99.90
19878;DHT22;10101;52.204;9.910;2023-05-10T12:02:53;17.60;99.90
19878;DHT22;10101;52.204;9.910;2023-05-10T12:05:20;17.60;99.90
19878;DHT22;10101;52.204;9.910;2023-05-10T12:07:47;18.40;99.90
19878;DHT22;10101;52.204;9.910;2023-05-10T12:10:15;17.90;99.90
19878;DHT22;10101;52.204;9.910;2023-05-10T12:12:43;17.60;99.90
19878;DHT22;10101;52.204;9.910;2023-05-10T12:15:11;17.50;1.00
19878;DHT22;10101;52.204;9.910;2023-05-10T12:17:39;17.80;99.90
19878;DHT22;10101;52.204;9.910;2023-05-10T12:20:19;18.10;99.90
19878;DHT22;10101;52.204;9.910;2023-05-10T12:22:49;17.40;99.90
19878;DHT22;10101;52.204;9.910;2023-05-10T12:25:17;17.30;99.90
19878;DHT22;10101;52.204;9.910;2023-05-10T12:27:51;16.90;99.90
19878;DHT22;10101;52.204;9.910;2023-05-10T12:30:22;16.70;99.90
19878;DHT22;10101;52.204;9.910;2023-05-10T12:32:49;16.60;99.90
19878;DHT22;10101;52.204;9.910;2023-05-10T12:35:17;16.50;99.90
19878;DHT22;10101;52.204;9.910;2023-05-10T12:37:46;16.40;99.90
19878;DHT22;10101;52.204;9.910;2023-05-10T12:40:13;16.00;99.90
19878;DHT22;10101;52.204;9.910;2023-05-10T12:42:41;15.50;99.90
19878;DHT22;10101;52.204;9.910;2023-05-10T12:45:11;14.90;99.90
19878;DHT22;10101;52.204;9.910;2023-05-10T12:47:38;14.80;99.90
19878;DHT22;10101;52.204;9.910;2023-05-10T12:50:06;15.00;99.90
19878;DHT22;10101;52.204;9.910;2023-05-10T12:52:33;15.00;99.90
19878;DHT22;10101;52.204;9.910;2023-05-10T12:55:00;15.20;99.90
19878;DHT22;10101;52.204;9.910;2023-05-10T12:57:27;15.50;99.90
19878;DHT22;10101;52.204;9.910;2023-05-10T12:59:55;15.60;99.90
19878;DHT22;10101;52.204;9.910;2023-05-10T13:02:22;16.00;99.90
19878;DHT22;10101;52.204;9.910;2023-05-10T13:04:49;16.20;99.90
19878;DHT22;10101;52.204;9.910;2023-05-10T13:07:16;16.20;99.90
19878;DHT22;10101;52.204;9.910;2023-05-10T13:09:43;16.60;99.90
19878;DHT22;10101;52.204;9.910;2023-05-10T13:12:10;16.70;99.90
19878;DHT22;10101;52.204;9.910;2023-05-10T13:14:37;16.50;99.90
19878;DHT22;10101;52.204;9.910;2023-05-10T13:17:07;16.50;99.90
19878;DHT22;10101;52.204;9.910;2023-05-10T13:19:34;16.30;99.90
19878;DHT22;10101;52.204;9.910;2023-05-10T13:22:00;16.70;99.90
19878;DHT22;10101;52.204;9.910;2023-05-10T13:24:27;17.20;99.90
19878;DHT22;10101;52.204;9.910;2023-05-10T13:26:54;17.50;99.90
19878;DHT22;10101;52.204;9.910;2023-05-10T13:29:21;17.30;99.90
19878;DHT22;10101;52.204;9.910;2023-05-10T13:31:48;17.70;99.90
19878;DHT22;10101;52.204;9.910;2023-05-10T13:34:16;17.90;99.90
19878;DHT22;10101;52.204;9.910;2023-05-10T13:36:46;17.60;99.90
19878;DHT22;10101;52.204;9.910;2023-05-10T13:39:12;17.30;99.90
19878;DHT22;10101;52.204;9.910;2023-05-10T13:41:39;17.20;99.90
19878;DHT22;10101;52.204;9.910;2023-05-10T13:44:06;17.30;99.90
19878;DHT22;10101;52.204;9.910;2023-05-10T13:46:33;17.40;99.90
19878;DHT22;10101;52.204;9.910;2023-05-10T13:49:00;17.40;99.90
19878;DHT22;10101;52.204;9.910;2023-05-10T13:51:28;17.40;99.90
19878;DHT22;10101;52.204;9.910;2023-05-10T13:53:57;17.40;99.90
19878;DHT22;10101;52.204;9.910;2023-05-10T13:56:24;17.50;99.90
19878;DHT22;10101;52.204;9.910;2023-05-10T13:58:50;17.40;99.90
19878;DHT22;10101;52.204;9.910;2023-05-10T14:01:17;17.50;99.90
19878;DHT22;10101;52.204;9.910;2023-05-10T14:03:44;17.50;99.90
19878;DHT22;10101;52.204;9.910;2023-05-10T14:06:11;17.20;99.90
19878;DHT22;10101;52.204;9.910;2023-05-10T14:08:39;17.20;99.90
19878;DHT22;10101;52.204;9.910;2023-05-10T14:11:06;17.30;99.90
19878;DHT22;10101;52.204;9.910;2023-05-10T14:13:33;17.40;99.90
19878;DHT22;10101;52.204;9.910;2023-05-10T14:16:00;17.30;99.90
19878;DHT22;10101;52.204;9.910;2023-05-10T14:18:27;17.10;99.90
19878;DHT22;10101;52.204;9.910;2023-05-10T14:20:54;17.40;99.90
19878;DHT22;10101;52.204;9.910;2023-05-10T14:23:21;17.80;99.90
19878;DHT22;10101;52.204;9.910;2023-05-10T14:25:52;18.10;99.90
19878;DHT22;10101;52.204;9.910;2023-05-10T14:28:19;18.10;99.90
19878;DHT22;10101;52.204;9.910;2023-05-10T14:30:46;18.00;99.90
19878;DHT22;10101;52.204;9.910;2023-05-10T14:33:13;17.90;99.90
19878;DHT22;10101;52.204;9.910;2023-05-10T14:35:40;17.60;99.90
19878;DHT22;10101;52.204;9.910;2023-05-10T14:38:07;17.60;99.90
19878;DHT22;10101;52.204;9.910;2023-05-10T14:40:34;17.80;99.90
19878;DHT22;10101;52.204;9.910;2023-05-10T14:43:02;18.10;99.90
19878;DHT22;10101;52.204;9.910;2023-05-10T14:45:29;17.80;99.90
19878;DHT22;10101;52.204;9.910;2023-05-10T14:47:56;17.80;99.90
19878;DHT22;10101;52.204;9.910;2023-05-10T14:50:23;18.00;99.90
19878;DHT22;10101;52.204;9.910;2023-05-10T14:52:50;18.10;99.90
19878;DHT22;10101;52.204;9.910;2023-05-10T14:55:17;18.40;99.90
19878;DHT22;10101;52.204;9.910;2023-05-10T14:57:44;18.20;99.90
19878;DHT22;10101;52.204;9.910;2023-05-10T15:00:15;18.00;99.90
19878;DHT22;10101;52.204;9.910;2023-05-10T15:02:42;18.10;99.90
19878;DHT22;10101;52.204;9.910;2023-05-10T15:05:09;18.30;99.90
19878;DHT22;10101;52.204;9.910;2023-05-10T15:07:35;17.90;99.90
19878;DHT22;10101;52.204;9.910;2023-05-10T15:10:03;17.90;99.90
19878;DHT22;10101;52.204;9.910;2023-05-10T15:12:29;18.00;99.90
19878;DHT22;10101;52.204;9.910;2023-05-10T15:14:56;17.90;99.90
19878;DHT22;10101;52.204;9.910;2023-05-10T15:17:24;17.40;99.90
19878;DHT22;10101;52.204;9.910;2023-05-10T15:19:51;17.60;99.90
19878;DHT22;10101;52.204;9.910;2023-05-10T15:22:18;17.60;99.90
19878;DHT22;10101;52.204;9.910;2023-05-10T15:24:45;17.60;99.90
19878;DHT22;10101;52.204;9.910;2023-05-10T15:27:11;17.60;99.90
19878;DHT22;10101;52.204;9.910;2023-05-10T15:29:38;17.70;99.90
19878;DHT22;10101;52.204;9.910;2023-05-10T15:32:05;17.40;99.90
19878;DHT22;10101;52.204;9.910;2023-05-10T15:34:33;17.30;99.90
19878;DHT22;10101;52.204;9.910;2023-05-10T15:37:00;17.10;99.90
19878;DHT22;10101;52.204;9.910;2023-05-10T15:39:26;17.00;99.90
19878;DHT22;10101;52.204;9.910;2023-05-10T15:41:53;16.90;99.90
19878;DHT22;10101;52.204;9.910;2023-05-10T15:44:20;16.80;99.90
19878;DHT22;10101;52.204;9.910;2023-05-10T15:46:47;16.60;99.90
19878;DHT22;10101;52.204;9.910;2023-05-10T15:49:14;16.50;99.90
19878;DHT22;10101;52.204;9.910;2023-05-10T15:51:42;16.50;99.90